createdAt,value
2022-09-21T00:00:41.234Z,101948.94
2022-09-21T00:05:42.947Z,101946.34
2022-09-21T00:10:49.849Z,101950.38
2022-09-21T00:15:51.248Z,101948.19
2022-09-21T00:20:55.412Z,101942.75
2022-09-21T00:26:18.419Z,101939.28
2022-09-21T00:31:22.299Z,101943.22
2022-09-21T00:36:24.994Z,101955.41
2022-09-21T00:47:33.416Z,101951.91
2022-09-21T00:52:39.900Z,101949.63
2022-09-21T00:57:48.967Z,101961.31
2022-09-21T01:03:00.861Z,101959.66
2022-09-21T01:08:07.811Z,101953.19
2022-09-21T01:13:16.245Z,101954.72
2022-09-21T01:18:31.906Z,101955.28
2022-09-21T01:23:50.434Z,101955.72
2022-09-21T01:29:09.854Z,101959.28
2022-09-21T01:34:36.201Z,101960.59
2022-09-21T01:39:54.908Z,101963.34
2022-09-21T01:45:00.711Z,101968.03
2022-09-21T01:50:05.281Z,101967.50
2022-09-21T01:55:15.813Z,101968.75
2022-09-21T02:00:17.552Z,101969.59
2022-09-21T02:05:22.550Z,101973.72
2022-09-21T02:10:39.866Z,101971.50
2022-09-21T02:16:01.881Z,101966.69
2022-09-21T02:21:17.813Z,101975.75
2022-09-21T02:26:44.706Z,101972.28
2022-09-21T02:31:53.855Z,101967.75
2022-09-21T02:37:14.533Z,101971.47
2022-09-21T02:42:21.935Z,101967.91
2022-09-21T02:54:20.012Z,101961.84
2022-09-21T02:59:21.645Z,101960.22
2022-09-21T03:04:23.631Z,101968.09
2022-09-21T03:09:25.165Z,101949.72
2022-09-21T03:14:26.668Z,101954.13
2022-09-21T03:19:28.219Z,101958.13
2022-09-21T03:24:29.784Z,101961.59
2022-09-21T03:29:31.296Z,101963.16
2022-09-21T03:34:32.916Z,101965.75
2022-09-21T03:39:34.851Z,101967.75
2022-09-21T03:44:36.386Z,101973.66
2022-09-21T03:49:37.927Z,101972.28
2022-09-21T03:54:39.511Z,101972.63
2022-09-21T03:59:41.265Z,101973.50
2022-09-21T04:04:43.058Z,101966.63
2022-09-21T04:09:44.587Z,101971.72
2022-09-21T04:14:46.128Z,101969.31
2022-09-21T04:19:47.676Z,101978.84
2022-09-21T04:24:49.244Z,101973.88
2022-09-21T04:29:50.859Z,101980.28
2022-09-21T04:34:52.412Z,101975.81
2022-09-21T04:39:54.042Z,101985.06
2022-09-21T04:44:55.820Z,101992.28
2022-09-21T04:49:57.423Z,101990.97
2022-09-21T04:54:58.912Z,101990.56
2022-09-21T05:00:00.615Z,101995.72
2022-09-21T05:05:02.293Z,102008.19
2022-09-21T05:10:04.308Z,102007.44
2022-09-21T05:15:06.522Z,102011.28
2022-09-21T05:20:08.408Z,102017.72
2022-09-21T05:25:10.186Z,102028.72
2022-09-21T05:30:12.550Z,102023.88
2022-09-21T05:35:38.070Z,102024.34
2022-09-21T05:40:40.024Z,102031.75
2022-09-21T05:45:47.790Z,102037.44
2022-09-21T05:50:55.277Z,102034.47
2022-09-21T05:55:58.175Z,102042.06
2022-09-21T06:01:12.129Z,102047.38
2022-09-21T06:06:13.952Z,102051.91
2022-09-21T06:11:16.595Z,102061.00
2022-09-21T06:16:18.248Z,102060.16
2022-09-21T06:21:19.866Z,102069.13
2022-09-21T06:26:21.400Z,102074.63
2022-09-21T06:31:23.087Z,102081.09
2022-09-21T06:36:24.692Z,102072.16
2022-09-21T06:41:26.349Z,102078.84
2022-09-21T06:46:27.875Z,102081.78
2022-09-21T06:51:29.487Z,102078.34
2022-09-21T06:56:31.008Z,102077.56
2022-09-21T07:01:32.757Z,102077.38
2022-09-21T07:06:34.740Z,102077.44
2022-09-21T07:11:36.262Z,102084.97
2022-09-21T07:16:37.858Z,102086.66
2022-09-21T07:21:39.727Z,102095.75
2022-09-21T07:26:41.346Z,102091.44
2022-09-21T07:31:44.462Z,102097.69
2022-09-21T07:36:46.019Z,102088.03
2022-09-21T07:41:47.630Z,102095.63
2022-09-21T07:46:49.673Z,102090.88
2022-09-21T07:51:51.212Z,102093.75
2022-09-21T07:56:52.853Z,102096.34
2022-09-21T08:01:54.409Z,102087.72
2022-09-21T08:06:56.248Z,102095.47
2022-09-21T08:11:57.809Z,102088.25
2022-09-21T08:16:59.416Z,102100.44
2022-09-21T08:22:01.038Z,102095.94
2022-09-21T08:27:02.693Z,102092.41
2022-09-21T08:32:04.531Z,102104.69
2022-09-21T08:37:06.679Z,102108.66
2022-09-21T08:42:08.164Z,102111.38
2022-09-21T08:47:14.143Z,102114.63
2022-09-21T08:52:19.282Z,102112.00
2022-09-21T08:57:25.788Z,102110.28
2022-09-21T09:02:54.555Z,102108.19
2022-09-21T09:08:18.466Z,102110.78
2022-09-21T09:13:57.587Z,102118.25
2022-09-21T09:19:37.695Z,102114.22
2022-09-21T09:24:48.913Z,102110.13
2022-09-21T09:30:03.943Z,102107.09
2022-09-21T09:35:44.672Z,102104.03
2022-09-21T09:41:10.895Z,102106.88
2022-09-21T09:46:31.263Z,102106.06
2022-09-21T09:51:33.031Z,102109.69
2022-09-21T09:56:34.534Z,102104.00
2022-09-21T10:01:44.338Z,102101.28
2022-09-21T10:06:47.012Z,102090.84
2022-09-21T10:11:49.372Z,102081.22
2022-09-21T10:16:52.603Z,102081.34
2022-09-21T10:22:02.408Z,102079.09
2022-09-21T10:27:12.652Z,102067.25
2022-09-21T10:32:15.042Z,102067.78
2022-09-21T10:37:32.267Z,102069.88
2022-09-21T10:42:42.544Z,102076.16
2022-09-21T10:47:48.351Z,102070.28
2022-09-21T10:52:51.577Z,102074.78
2022-09-21T10:57:53.674Z,102071.88
2022-09-21T11:02:56.466Z,102076.16
2022-09-21T11:08:20.047Z,102067.34
2022-09-21T11:14:00.142Z,102058.88
2022-09-21T11:19:21.932Z,102053.16
2022-09-21T11:24:49.253Z,102047.47
2022-09-21T11:29:58.275Z,102038.91
2022-09-21T11:35:26.120Z,102037.06
2022-09-21T11:40:35.136Z,102022.38
2022-09-21T11:45:59.686Z,102024.19
2022-09-21T11:51:23.012Z,102031.25
2022-09-21T11:56:33.898Z,102024.00
2022-09-21T12:02:06.467Z,102012.72
2022-09-21T12:07:17.282Z,102013.94
2022-09-21T12:12:52.760Z,102014.69
2022-09-21T12:18:19.624Z,102000.78
2022-09-21T12:23:39.062Z,101996.31
2022-09-21T12:28:49.271Z,101989.91
2022-09-21T12:33:58.098Z,101985.78
2022-09-21T12:39:29.188Z,101975.34
2022-09-21T12:44:45.995Z,101970.53
2022-09-21T12:49:48.927Z,101968.25
2022-09-21T12:55:04.272Z,101965.13
2022-09-21T13:00:11.150Z,101958.59
2022-09-21T13:05:35.724Z,101967.31
2022-09-21T13:10:55.664Z,101946.41
2022-09-21T13:15:57.902Z,101949.19
2022-09-21T13:21:00.238Z,101944.59
2022-09-21T13:26:36.217Z,101944.44
2022-09-21T13:31:58.773Z,101943.84
2022-09-21T13:37:09.609Z,101942.28
2022-09-21T13:42:29.567Z,101935.25
2022-09-21T13:47:36.874Z,101926.06
2022-09-21T13:52:45.247Z,101929.50
2022-09-21T13:57:50.068Z,101925.28
2022-09-21T14:02:51.866Z,101913.81
2022-09-21T14:08:01.384Z,101909.00
2022-09-21T14:13:22.275Z,101902.44
2022-09-21T14:18:37.724Z,101916.09
2022-09-21T14:23:39.931Z,101909.25
2022-09-21T14:28:50.674Z,101898.47
2022-09-21T14:33:55.597Z,101886.69
2022-09-21T14:39:00.841Z,101890.09
2022-09-21T14:44:02.755Z,101888.00
2022-09-21T14:49:10.649Z,101879.97
2022-09-21T14:54:39.608Z,101873.97
2022-09-21T15:00:12.338Z,101866.88
2022-09-21T15:05:19.552Z,101865.34
2022-09-21T15:10:24.167Z,101861.22
2022-09-21T15:15:37.761Z,101864.72
2022-09-21T15:20:39.447Z,101853.00
2022-09-21T15:25:41.091Z,101850.25
2022-09-21T15:30:43.458Z,101849.00
2022-09-21T15:35:46.749Z,101849.38
2022-09-21T15:40:50.002Z,101838.66
2022-09-21T15:46:03.384Z,101839.69
2022-09-21T15:51:15.213Z,101839.38
2022-09-21T15:56:24.470Z,101835.41
2022-09-21T16:01:27.049Z,101833.50
2022-09-21T16:06:36.824Z,101840.28
2022-09-21T16:11:38.400Z,101838.66
2022-09-21T16:17:08.901Z,101825.09
2022-09-21T16:22:15.880Z,101831.44
2022-09-21T16:27:20.411Z,101824.97
2022-09-21T16:32:31.093Z,101828.91
2022-09-21T16:37:32.786Z,101828.19
2022-09-21T16:42:34.338Z,101831.75
2022-09-21T16:47:37.726Z,101831.31
2022-09-21T16:52:39.378Z,101834.63
2022-09-21T16:57:41.580Z,101825.47
2022-09-21T17:02:43.903Z,101828.31
2022-09-21T17:07:56.615Z,101820.00
2022-09-21T17:12:58.343Z,101825.53
2022-09-21T17:18:00.288Z,101825.69
2022-09-21T17:23:02.397Z,101821.94
2022-09-21T17:28:14.365Z,101822.78
2022-09-21T17:33:15.873Z,101823.25
2022-09-21T17:38:17.537Z,101831.34
2022-09-21T17:43:38.667Z,101830.09
2022-09-21T17:48:40.637Z,101836.56
2022-09-21T17:53:42.430Z,101834.31
2022-09-21T17:58:50.068Z,101825.28
2022-09-21T18:03:52.145Z,101826.59
2022-09-21T18:08:54.090Z,101821.75
2022-09-21T18:14:10.843Z,101840.53
2022-09-21T18:19:30.899Z,101844.59
2022-09-21T18:24:32.643Z,101841.03
2022-09-21T18:29:42.161Z,101856.53
2022-09-21T18:35:02.438Z,101849.56
2022-09-21T18:40:19.735Z,101853.53
2022-09-21T18:45:27.016Z,101851.06
2022-09-21T18:51:07.025Z,101858.84
2022-09-21T18:56:08.943Z,101852.13
2022-09-21T19:01:12.511Z,101850.69
2022-09-21T19:06:45.709Z,101852.09
2022-09-21T19:12:11.220Z,101854.97
2022-09-21T19:17:21.778Z,101859.25
2022-09-21T19:22:29.781Z,101855.94
2022-09-21T19:27:37.778Z,101857.22
2022-09-21T19:32:46.678Z,101855.69
2022-09-21T19:37:49.640Z,101863.28
2022-09-21T19:43:20.001Z,101868.13
2022-09-21T19:48:27.327Z,101861.06
2022-09-21T19:53:30.316Z,101855.78
2022-09-21T19:58:32.232Z,101859.03
2022-09-21T20:03:39.342Z,101855.72
2022-09-21T20:08:55.171Z,101860.25
2022-09-21T20:14:05.078Z,101860.25
2022-09-21T20:19:25.156Z,101861.53
2022-09-21T20:24:48.501Z,101861.78
2022-09-21T20:29:50.025Z,101857.84
2022-09-21T20:34:51.604Z,101855.53
2022-09-21T20:39:53.835Z,101856.31
2022-09-21T20:44:55.440Z,101860.69
2022-09-21T20:49:57.009Z,101859.16
2022-09-21T20:54:58.520Z,101859.25
2022-09-21T21:00:00.233Z,101859.31
2022-09-21T21:05:02.123Z,101848.56
2022-09-21T21:10:04.258Z,101850.19
2022-09-21T21:15:06.590Z,101850.81
2022-09-21T21:20:09.221Z,101850.22
2022-09-21T21:25:10.892Z,101853.69
2022-09-21T21:30:12.933Z,101855.66
2022-09-21T21:35:14.594Z,101861.22
2022-09-21T21:40:16.304Z,101867.03
2022-09-21T21:45:17.894Z,101866.38
2022-09-21T21:50:19.375Z,101870.75
2022-09-21T21:55:20.941Z,101866.88
2022-09-21T22:00:22.524Z,101866.88
2022-09-21T22:05:24.085Z,101866.53
2022-09-21T22:10:25.625Z,101858.66
2022-09-21T22:15:27.123Z,101866.72
2022-09-21T22:20:28.676Z,101868.53
2022-09-21T22:25:30.183Z,101864.25
2022-09-21T22:30:31.827Z,101867.31
2022-09-21T22:35:33.295Z,101870.09
2022-09-21T22:40:34.909Z,101857.31
2022-09-21T22:45:36.527Z,101865.38
2022-09-21T22:50:38.037Z,101860.63
2022-09-21T22:55:39.528Z,101864.00
2022-09-21T23:00:41.237Z,101858.66
2022-09-21T23:05:42.776Z,101854.81
2022-09-21T23:10:44.242Z,101851.81
2022-09-21T23:15:45.800Z,101846.22
2022-09-21T23:20:59.006Z,101850.00
2022-09-21T23:26:20.842Z,101851.19
2022-09-21T23:31:23.476Z,101855.94
2022-09-21T23:36:28.006Z,101848.31
2022-09-21T23:41:33.135Z,101853.00
2022-09-21T23:46:36.547Z,101855.47
2022-09-21T23:51:38.540Z,101849.72
2022-09-21T23:56:40.129Z,101851.34
